sensor_id;sensor_type;location;lat;lon;timestamp;temperature;humidity
18147;DHT22;9199;48.832;9.182;2023-02-18T15:51:54;16.50;93.40
18147;DHT22;9199;48.832;9.182;2023-02-18T15:54:23;15.70;93.80
18147;DHT22;9199;48.832;9.182;2023-02-18T15:56:53;15.10;94.50
18147;DHT22;9199;48.832;9.182;2023-02-18T15:59:24;14.70;95.00
18147;DHT22;9199;48.832;9.182;2023-02-18T16:01:52;14.40;95.30
18147;DHT22;9199;48.832;9.182;2023-02-18T16:04:21;14.20;95.60
18147;DHT22;9199;48.832;9.182;2023-02-18T16:06:49;14.10;95.70
18147;DHT22;9199;48.832;9.182;2023-02-18T16:09:22;14.00;95.80
18147;DHT22;9199;48.832;9.182;2023-02-18T16:11:52;14.00;96.10
18147;DHT22;9199;48.832;9.182;2023-02-18T16:14:27;13.90;96.20
18147;DHT22;9199;48.832;9.182;2023-02-18T16:17:05;13.90;96.30
18147;DHT22;9199;48.832;9.182;2023-02-18T16:19:33;13.80;96.30
18147;DHT22;9199;48.832;9.182;2023-02-18T16:22:05;13.80;96.50
18147;DHT22;9199;48.832;9.182;2023-02-18T16:24:39;13.80;96.50
18147;DHT22;9199;48.832;9.182;2023-02-18T16:27:14;13.70;96.50
18147;DHT22;9199;48.832;9.182;2023-02-18T16:29:42;13.70;96.60
18147;DHT22;9199;48.832;9.182;2023-02-18T16:32:09;13.70;96.70
18147;DHT22;9199;48.832;9.182;2023-02-18T16:34:36;13.60;96.70
18147;DHT22;9199;48.832;9.182;2023-02-18T16:37:03;13.60;96.80
18147;DHT22;9199;48.832;9.182;2023-02-18T16:39:49;13.60;96.80
18147;DHT22;9199;48.832;9.182;2023-02-18T16:42:19;13.50;96.90
18147;DHT22;9199;48.832;9.182;2023-02-18T16:44:46;13.50;96.90
18147;DHT22;9199;48.832;9.182;2023-02-18T16:47:15;13.50;97.00
18147;DHT22;9199;48.832;9.182;2023-02-18T16:49:44;13.50;97.10
18147;DHT22;9199;48.832;9.182;2023-02-18T16:52:12;13.50;97.10
18147;DHT22;9199;48.832;9.182;2023-02-18T16:54:41;13.50;97.10
18147;DHT22;9199;48.832;9.182;2023-02-18T16:57:10;13.50;97.30
18147;DHT22;9199;48.832;9.182;2023-02-18T16:59:36;13.40;97.30
18147;DHT22;9199;48.832;9.182;2023-02-18T17:02:03;13.40;97.30
18147;DHT22;9199;48.832;9.182;2023-02-18T17:04:30;13.40;97.30
18147;DHT22;9199;48.832;9.182;2023-02-18T17:06:56;13.40;97.40
18147;DHT22;9199;48.832;9.182;2023-02-18T17:09:23;13.40;97.50
18147;DHT22;9199;48.832;9.182;2023-02-18T17:11:53;13.40;97.60
18147;DHT22;9199;48.832;9.182;2023-02-18T17:14:22;13.40;97.60
18147;DHT22;9199;48.832;9.182;2023-02-18T17:16:51;13.30;97.70
18147;DHT22;9199;48.832;9.182;2023-02-18T17:19:19;13.30;97.80
18147;DHT22;9199;48.832;9.182;2023-02-18T17:21:46;13.30;97.90
18147;DHT22;9199;48.832;9.182;2023-02-18T17:24:13;13.30;97.90
18147;DHT22;9199;48.832;9.182;2023-02-18T17:26:41;13.20;98.00
18147;DHT22;9199;48.832;9.182;2023-02-18T17:29:08;13.20;98.00
18147;DHT22;9199;48.832;9.182;2023-02-18T17:31:38;13.20;98.10
18147;DHT22;9199;48.832;9.182;2023-02-18T17:34:12;13.20;98.20
18147;DHT22;9199;48.832;9.182;2023-02-18T17:36:40;13.20;98.20
18147;DHT22;9199;48.832;9.182;2023-02-18T17:39:11;13.20;98.30
18147;DHT22;9199;48.832;9.182;2023-02-18T17:41:39;13.20;98.40
18147;DHT22;9199;48.832;9.182;2023-02-18T17:44:11;13.10;98.40
18147;DHT22;9199;48.832;9.182;2023-02-18T17:46:40;13.10;98.50
18147;DHT22;9199;48.832;9.182;2023-02-18T17:49:07;13.10;98.60
18147;DHT22;9199;48.832;9.182;2023-02-18T17:51:33;13.10;98.60
18147;DHT22;9199;48.832;9.182;2023-02-18T17:54:03;13.10;98.70
18147;DHT22;9199;48.832;9.182;2023-02-18T17:56:29;13.10;98.70
18147;DHT22;9199;48.832;9.182;2023-02-18T17:59:00;13.00;98.60
18147;DHT22;9199;48.832;9.182;2023-02-18T18:01:26;13.00;98.70
18147;DHT22;9199;48.832;9.182;2023-02-18T18:03:54;12.90;98.80
18147;DHT22;9199;48.832;9.182;2023-02-18T18:06:21;13.00;98.90
18147;DHT22;9199;48.832;9.182;2023-02-18T18:08:48;13.00;99.00
18147;DHT22;9199;48.832;9.182;2023-02-18T18:11:17;12.90;98.90
18147;DHT22;9199;48.832;9.182;2023-02-18T18:13:44;12.90;99.00
18147;DHT22;9199;48.832;9.182;2023-02-18T18:16:12;12.90;99.00
18147;DHT22;9199;48.832;9.182;2023-02-18T18:18:39;12.90;99.00
18147;DHT22;9199;48.832;9.182;2023-02-18T18:21:15;12.90;99.00
18147;DHT22;9199;48.832;9.182;2023-02-18T18:23:43;12.90;99.10
18147;DHT22;9199;48.832;9.182;2023-02-18T18:26:10;12.90;99.20
18147;DHT22;9199;48.832;9.182;2023-02-18T18:28:37;12.80;99.20
18147;DHT22;9199;48.832;9.182;2023-02-18T18:31:03;12.80;99.30
18147;DHT22;9199;48.832;9.182;2023-02-18T18:33:32;12.80;99.40
18147;DHT22;9199;48.832;9.182;2023-02-18T18:36:00;12.70;99.50
18147;DHT22;9199;48.832;9.182;2023-02-18T18:38:28;12.70;99.50
18147;DHT22;9199;48.832;9.182;2023-02-18T18:40:55;12.70;99.50
18147;DHT22;9199;48.832;9.182;2023-02-18T18:43:23;12.70;99.50
18147;DHT22;9199;48.832;9.182;2023-02-18T18:45:51;12.70;99.50
18147;DHT22;9199;48.832;9.182;2023-02-18T18:48:18;12.60;99.60
18147;DHT22;9199;48.832;9.182;2023-02-18T18:50:45;12.60;99.70
18147;DHT22;9199;48.832;9.182;2023-02-18T18:53:16;12.60;99.80
18147;DHT22;9199;48.832;9.182;2023-02-18T18:55:45;12.50;99.80
18147;DHT22;9199;48.832;9.182;2023-02-18T18:58:12;12.50;99.90
18147;DHT22;9199;48.832;9.182;2023-02-18T19:00:41;12.50;99.90
18147;DHT22;9199;48.832;9.182;2023-02-18T19:03:09;12.50;99.90
18147;DHT22;9199;48.832;9.182;2023-02-18T19:05:39;12.50;99.90
18147;DHT22;9199;48.832;9.182;2023-02-18T19:08:07;12.40;99.90
18147;DHT22;9199;48.832;9.182;2023-02-18T19:10:36;12.40;99.90
18147;DHT22;9199;48.832;9.182;2023-02-18T19:13:06;12.40;99.90
18147;DHT22;9199;48.832;9.182;2023-02-18T19:15:33;12.40;99.90
18147;DHT22;9199;48.832;9.182;2023-02-18T19:18:00;12.30;99.90
18147;DHT22;9199;48.832;9.182;2023-02-18T19:20:29;12.30;99.90
18147;DHT22;9199;48.832;9.182;2023-02-18T19:22:57;12.30;99.90
18147;DHT22;9199;48.832;9.182;2023-02-18T19:25:24;12.30;99.90
18147;DHT22;9199;48.832;9.182;2023-02-18T19:27:51;12.30;99.90
18147;DHT22;9199;48.832;9.182;2023-02-18T19:30:21;12.20;99.90
18147;DHT22;9199;48.832;9.182;2023-02-18T19:32:49;12.20;99.90
18147;DHT22;9199;48.832;9.182;2023-02-18T19:35:16;12.20;99.90
18147;DHT22;9199;48.832;9.182;2023-02-18T19:37:43;12.10;99.90
18147;DHT22;9199;48.832;9.182;2023-02-18T19:40:11;12.10;99.90
18147;DHT22;9199;48.832;9.182;2023-02-18T19:42:38;12.00;99.90
18147;DHT22;9199;48.832;9.182;2023-02-18T19:45:06;12.00;99.90
18147;DHT22;9199;48.832;9.182;2023-02-18T19:47:34;11.90;99.90
18147;DHT22;9199;48.832;9.182;2023-02-18T19:50:01;11.80;99.90
18147;DHT22;9199;48.832;9.182;2023-02-18T19:52:29;11.70;99.90
18147;DHT22;9199;48.832;9.182;2023-02-18T19:54:55;11.60;99.90
18147;DHT22;9199;48.832;9.182;2023-02-18T19:57:22;11.50;99.90
18147;DHT22;9199;48.832;9.182;2023-02-18T19:59:49;11.50;99.90
18147;DHT22;9199;48.832;9.182;2023-02-18T20:02:19;11.40;99.90
18147;DHT22;9199;48.832;9.182;2023-02-18T20:04:47;11.30;99.90
18147;DHT22;9199;48.832;9.182;2023-02-18T20:07:15;11.20;99.90
18147;DHT22;9199;48.832;9.182;2023-02-18T20:09:42;11.10;99.90
18147;DHT22;9199;48.832;9.182;2023-02-18T20:12:09;11.00;99.90
18147;DHT22;9199;48.832;9.182;2023-02-18T20:14:37;11.00;99.90
18147;DHT22;9199;48.832;9.182;2023-02-18T20:17:04;10.90;99.90
18147;DHT22;9199;48.832;9.182;2023-02-18T20:19:32;10.90;99.90
18147;DHT22;9199;48.832;9.182;2023-02-18T20:22:00;10.90;99.90
18147;DHT22;9199;48.832;9.182;2023-02-18T20:24:28;10.80;99.90
18147;DHT22;9199;48.832;9.182;2023-02-18T20:26:55;10.80;99.90
18147;DHT22;9199;48.832;9.182;2023-02-18T20:29:22;10.80;99.90
18147;DHT22;9199;48.832;9.182;2023-02-18T20:31:50;10.90;99.90
18147;DHT22;9199;48.832;9.182;2023-02-18T20:34:17;10.90;99.90
18147;DHT22;9199;48.832;9.182;2023-02-18T20:36:44;10.90;99.90
18147;DHT22;9199;48.832;9.182;2023-02-18T20:39:13;10.80;99.90
18147;DHT22;9199;48.832;9.182;2023-02-18T20:41:40;10.80;99.90
18147;DHT22;9199;48.832;9.182;2023-02-18T20:44:07;10.80;99.90
18147;DHT22;9199;48.832;9.182;2023-02-18T20:46:35;10.70;99.90
18147;DHT22;9199;48.832;9.182;2023-02-18T20:49:02;10.70;99.90
18147;DHT22;9199;48.832;9.182;2023-02-18T20:51:31;10.70;99.90
18147;DHT22;9199;48.832;9.182;2023-02-18T20:53:58;10.70;99.90
18147;DHT22;9199;48.832;9.182;2023-02-18T20:56:26;10.60;99.90
18147;DHT22;9199;48.832;9.182;2023-02-18T20:58:53;10.60;99.90
18147;DHT22;9199;48.832;9.182;2023-02-18T21:01:20;10.50;99.90
18147;DHT22;9199;48.832;9.182;2023-02-18T21:03:48;10.60;99.90
18147;DHT22;9199;48.832;9.182;2023-02-18T21:06:17;10.50;99.90
18147;DHT22;9199;48.832;9.182;2023-02-18T21:08:45;10.50;99.90
18147;DHT22;9199;48.832;9.182;2023-02-18T21:11:15;10.40;99.90
18147;DHT22;9199;48.832;9.182;2023-02-18T21:13:44;10.40;99.90
18147;DHT22;9199;48.832;9.182;2023-02-18T21:16:11;10.40;99.90
18147;DHT22;9199;48.832;9.182;2023-02-18T21:18:39;10.40;99.90
18147;DHT22;9199;48.832;9.182;2023-02-18T21:21:07;10.30;99.90
18147;DHT22;9199;48.832;9.182;2023-02-18T21:23:35;10.30;99.90
18147;DHT22;9199;48.832;9.182;2023-02-18T21:26:03;10.30;99.90
18147;DHT22;9199;48.832;9.182;2023-02-18T21:28:30;10.30;99.90
18147;DHT22;9199;48.832;9.182;2023-02-18T21:30:59;10.30;99.90
18147;DHT22;9199;48.832;9.182;2023-02-18T21:33:26;10.30;99.90
18147;DHT22;9199;48.832;9.182;2023-02-18T21:35:53;10.20;99.90
18147;DHT22;9199;48.832;9.182;2023-02-18T21:38:20;10.20;99.90
18147;DHT22;9199;48.832;9.182;2023-02-18T21:40:47;10.20;99.90
18147;DHT22;9199;48.832;9.182;2023-02-18T21:43:14;10.20;99.90
18147;DHT22;9199;48.832;9.182;2023-02-18T21:45:40;10.20;99.90
18147;DHT22;9199;48.832;9.182;2023-02-18T21:48:08;10.20;99.90
18147;DHT22;9199;48.832;9.182;2023-02-18T21:51:01;10.20;99.90
18147;DHT22;9199;48.832;9.182;2023-02-18T21:53:28;10.20;99.90
18147;DHT22;9199;48.832;9.182;2023-02-18T21:55:54;10.20;99.90
18147;DHT22;9199;48.832;9.182;2023-02-18T21:58:21;10.20;99.90
18147;DHT22;9199;48.832;9.182;2023-02-18T22:00:55;10.10;99.90
18147;DHT22;9199;48.832;9.182;2023-02-18T22:03:23;10.10;99.90
18147;DHT22;9199;48.832;9.182;2023-02-18T22:05:50;10.00;99.90
18147;DHT22;9199;48.832;9.182;2023-02-18T22:08:17;10.00;99.90
18147;DHT22;9199;48.832;9.182;2023-02-18T22:10:45;10.00;99.90
18147;DHT22;9199;48.832;9.182;2023-02-18T22:13:12;10.00;99.90
18147;DHT22;9199;48.832;9.182;2023-02-18T22:15:38;9.90;99.90
18147;DHT22;9199;48.832;9.182;2023-02-18T22:18:05;9.90;99.90
18147;DHT22;9199;48.832;9.182;2023-02-18T22:20:33;9.90;99.90
18147;DHT22;9199;48.832;9.182;2023-02-18T22:23:00;9.90;99.90
18147;DHT22;9199;48.832;9.182;2023-02-18T22:25:26;9.90;99.90
18147;DHT22;9199;48.832;9.182;2023-02-18T22:27:53;9.90;99.90
18147;DHT22;9199;48.832;9.182;2023-02-18T22:30:20;9.80;99.90
18147;DHT22;9199;48.832;9.182;2023-02-18T22:32:46;9.80;99.90
18147;DHT22;9199;48.832;9.182;2023-02-18T22:35:13;9.80;99.90
18147;DHT22;9199;48.832;9.182;2023-02-18T22:37:41;9.80;99.90
18147;DHT22;9199;48.832;9.182;2023-02-18T22:40:09;9.80;99.90
18147;DHT22;9199;48.832;9.182;2023-02-18T22:42:35;9.70;99.90
18147;DHT22;9199;48.832;9.182;2023-02-18T22:45:02;9.70;99.90
18147;DHT22;9199;48.832;9.182;2023-02-18T22:47:29;9.70;99.90
18147;DHT22;9199;48.832;9.182;2023-02-18T22:49:56;9.70;99.90
18147;DHT22;9199;48.832;9.182;2023-02-18T22:52:23;9.60;99.90
18147;DHT22;9199;48.832;9.182;2023-02-18T22:54:51;9.60;99.90
18147;DHT22;9199;48.832;9.182;2023-02-18T22:57:18;9.60;99.90
18147;DHT22;9199;48.832;9.182;2023-02-18T22:59:44;9.60;99.90
18147;DHT22;9199;48.832;9.182;2023-02-18T23:02:11;9.60;99.90
18147;DHT22;9199;48.832;9.182;2023-02-18T23:04:38;9.70;99.90
18147;DHT22;9199;48.832;9.182;2023-02-18T23:07:06;9.70;99.90
18147;DHT22;9199;48.832;9.182;2023-02-18T23:09:33;9.70;99.90
18147;DHT22;9199;48.832;9.182;2023-02-18T23:12:01;9.70;99.90
18147;DHT22;9199;48.832;9.182;2023-02-18T23:14:27;9.70;99.90
18147;DHT22;9199;48.832;9.182;2023-02-18T23:16:56;9.70;99.90
18147;DHT22;9199;48.832;9.182;2023-02-18T23:19:39;9.70;99.90
18147;DHT22;9199;48.832;9.182;2023-02-18T23:22:07;9.70;99.90
18147;DHT22;9199;48.832;9.182;2023-02-18T23:24:36;9.70;99.90
18147;DHT22;9199;48.832;9.182;2023-02-18T23:27:05;9.70;99.90
18147;DHT22;9199;48.832;9.182;2023-02-18T23:29:32;9.70;99.90
18147;DHT22;9199;48.832;9.182;2023-02-18T23:32:00;9.80;99.90
18147;DHT22;9199;48.832;9.182;2023-02-18T23:34:27;9.80;99.90
18147;DHT22;9199;48.832;9.182;2023-02-18T23:36:54;9.80;99.90
18147;DHT22;9199;48.832;9.182;2023-02-18T23:39:22;9.80;99.90
18147;DHT22;9199;48.832;9.182;2023-02-18T23:41:49;9.80;99.90
18147;DHT22;9199;48.832;9.182;2023-02-18T23:44:20;9.80;99.90
18147;DHT22;9199;48.832;9.182;2023-02-18T23:46:47;9.80;99.90
18147;DHT22;9199;48.832;9.182;2023-02-18T23:49:14;9.80;99.90
18147;DHT22;9199;48.832;9.182;2023-02-18T23:51:41;9.80;99.90
18147;DHT22;9199;48.832;9.182;2023-02-18T23:54:08;9.80;99.90
18147;DHT22;9199;48.832;9.182;2023-02-18T23:56:36;9.80;99.90
18147;DHT22;9199;48.832;9.182;2023-02-18T23:59:04;9.80;99.90
